createdAt,value
2018-12-17T00:00:04.201Z,0
2018-12-17T00:01:05.163Z,0
2018-12-17T00:02:04.928Z,0
2018-12-17T00:03:05.337Z,0
2018-12-17T00:04:06.748Z,0
2018-12-17T00:05:07.169Z,0
2018-12-17T00:06:07.860Z,0
2018-12-17T00:07:08.273Z,0
2018-12-17T00:08:09.376Z,0
2018-12-17T00:09:09.789Z,0
2018-12-17T00:10:10.261Z,0
2018-12-17T00:11:10.683Z,0
2018-12-17T00:12:18.223Z,0
2018-12-17T00:12:23.685Z,0
2018-12-17T00:13:23.779Z,0
2018-12-17T00:14:24.748Z,0
2018-12-17T00:15:25.161Z,0
2018-12-17T00:16:25.852Z,0
2018-12-17T00:17:27.267Z,0
2018-12-17T00:18:27.685Z,0
2018-12-17T00:19:29.096Z,0
2018-12-17T00:20:29.789Z,0
2018-12-17T00:21:30.479Z,0
2018-12-17T00:22:30.893Z,0
2018-12-17T00:23:32.295Z,0
2018-12-17T00:24:32.710Z,0
2018-12-17T00:25:33.846Z,0
2018-12-17T00:26:34.261Z,0
2018-12-17T00:27:35.506Z,0
2018-12-17T00:28:36.544Z,0
2018-12-17T00:29:37.231Z,0
2018-12-17T00:30:37.645Z,0
2018-12-17T00:31:38.334Z,0
2018-12-17T00:32:38.746Z,0
2018-12-17T00:33:40.217Z,0
2018-12-17T00:34:40.909Z,0
2018-12-17T00:35:41.044Z,0
2018-12-17T00:36:41.479Z,0
2018-12-17T00:37:42.616Z,0
2018-12-17T00:38:43.309Z,0
2018-12-17T00:39:44.000Z,0
2018-12-17T00:40:45.415Z,0
2018-12-17T00:41:45.827Z,0
2018-12-17T00:42:47.072Z,0
2018-12-17T00:43:47.201Z,0
2018-12-17T00:44:47.893Z,0
2018-12-17T00:45:48.581Z,0
2018-12-17T00:46:49.288Z,0
2018-12-17T00:47:50.249Z,0
2018-12-17T00:48:50.709Z,0
2018-12-17T00:49:51.182Z,0
2018-12-17T00:50:52.158Z,0
2018-12-17T00:51:52.130Z,0
2018-12-17T00:52:52.823Z,0
2018-12-17T00:53:53.940Z,0
2018-12-17T00:54:54.073Z,0
2018-12-17T00:55:55.485Z,0
2018-12-17T00:56:55.894Z,0
2018-12-17T00:57:56.586Z,0
2018-12-17T00:58:57.000Z,0
2018-12-17T00:59:58.997Z,0
2018-12-17T01:00:59.688Z,0
2018-12-17T01:02:00.161Z,0
2018-12-17T01:03:00.368Z,0
2018-12-17T01:04:01.183Z,0
2018-12-17T01:05:01.878Z,0
2018-12-17T01:06:02.629Z,0
2018-12-17T01:07:03.043Z,0
2018-12-17T01:08:04.288Z,0
2018-12-17T01:09:03.980Z,0
2018-12-17T01:10:05.124Z,0
2018-12-17T01:11:05.818Z,0
2018-12-17T01:12:06.024Z,0
2018-12-17T01:13:06.479Z,0
2018-12-17T01:14:06.746Z,0
2018-12-17T01:15:08.263Z,0
2018-12-17T01:16:07.758Z,0
2018-12-17T01:17:07.962Z,0
2018-12-17T01:18:08.928Z,0
2018-12-17T01:19:09.341Z,0
2018-12-17T01:20:10.312Z,0
2018-12-17T01:21:11.552Z,0
2018-12-17T01:22:11.799Z,0
2018-12-17T01:23:13.049Z,0
2018-12-17T01:24:13.433Z,0
2018-12-17T01:25:14.411Z,0
2018-12-17T01:26:14.933Z,0
2018-12-17T01:27:15.073Z,0
2018-12-17T01:28:27.518Z,0
2018-12-17T01:29:28.365Z,0
2018-12-17T01:30:29.779Z,0
2018-12-17T01:31:29.915Z,0
2018-12-17T01:32:30.942Z,0
2018-12-17T01:33:31.189Z,0
2018-12-17T01:34:32.158Z,0
2018-12-17T01:35:32.573Z,0
2018-12-17T01:36:33.267Z,0
2018-12-17T01:37:33.957Z,0
2018-12-17T01:38:34.650Z,0
2018-12-17T01:39:34.797Z,0
2018-12-17T01:40:35.761Z,0
2018-12-17T01:41:36.729Z,0
2018-12-17T01:42:37.151Z,0
2018-12-17T01:43:37.566Z,0
2018-12-17T01:44:37.981Z,0
2018-12-17T01:45:38.951Z,0
2018-12-17T01:46:39.644Z,0
2018-12-17T01:47:41.333Z,0
2018-12-17T01:48:42.064Z,0
2018-12-17T01:49:42.889Z,0
2018-12-17T01:50:43.304Z,0
2018-12-17T01:51:44.007Z,0
2018-12-17T01:52:44.141Z,0
2018-12-17T01:53:45.565Z,0
2018-12-17T01:54:46.535Z,0
2018-12-17T01:55:47.946Z,0
2018-12-17T01:56:48.356Z,0
2018-12-17T01:57:48.491Z,0
2018-12-17T01:58:49.903Z,0
2018-12-17T01:59:50.296Z,0
2018-12-17T02:00:50.989Z,0
2018-12-17T02:01:51.679Z,0
2018-12-17T02:02:52.372Z,0
2018-12-17T02:03:53.785Z,0
2018-12-17T02:04:53.921Z,0
2018-12-17T02:05:55.736Z,0
2018-12-17T02:06:56.146Z,0
2018-12-17T02:07:56.564Z,0
2018-12-17T02:08:57.533Z,0
2018-12-17T02:09:57.791Z,0
2018-12-17T02:10:57.924Z,0
2018-12-17T02:11:58.615Z,0
2018-12-17T02:12:59.584Z,0
2018-12-17T02:13:59.790Z,0
2018-12-17T02:15:00.206Z,0
2018-12-17T02:16:01.345Z,0
2018-12-17T02:17:01.769Z,0
2018-12-17T02:18:02.456Z,0
2018-12-17T02:19:03.150Z,0
2018-12-17T02:20:04.806Z,0
2018-12-17T02:21:04.219Z,0
2018-12-17T02:22:05.909Z,0
2018-12-17T02:23:06.049Z,0
2018-12-17T02:24:06.737Z,0
2018-12-17T02:25:06.872Z,0
2018-12-17T02:26:08.566Z,0
2018-12-17T02:27:09.534Z,0
2018-12-17T02:28:09.669Z,0
2018-12-17T02:29:10.807Z,0
2018-12-17T02:30:12.189Z,0
2018-12-17T02:31:12.721Z,0
2018-12-17T02:32:12.685Z,0
2018-12-17T02:33:13.934Z,0
2018-12-17T02:34:15.180Z,0
2018-12-17T02:35:15.150Z,0
2018-12-17T02:36:16.131Z,0
2018-12-17T02:37:16.428Z,0
2018-12-17T02:38:16.849Z,0
2018-12-17T02:39:17.837Z,0
2018-12-17T02:40:18.807Z,0
2018-12-17T02:41:19.219Z,0
2018-12-17T02:42:21.195Z,0
2018-12-17T02:43:20.932Z,0
2018-12-17T02:44:21.346Z,0
2018-12-17T02:45:22.042Z,0
2018-12-17T02:46:22.463Z,0
2018-12-17T02:47:23.705Z,0
2018-12-17T02:48:24.690Z,0
2018-12-17T02:49:25.704Z,0
2018-12-17T02:50:26.247Z,0
2018-12-17T02:51:27.383Z,0
2018-12-17T02:52:28.355Z,0
2018-12-17T02:53:29.047Z,0
2018-12-17T02:54:29.461Z,0
2018-12-17T02:55:30.154Z,0
2018-12-17T02:56:30.845Z,0
2018-12-17T02:57:34.106Z,0
2018-12-17T02:58:34.797Z,0
2018-12-17T02:59:35.769Z,0
2018-12-17T03:00:36.389Z,0
2018-12-17T03:01:37.371Z,0
2018-12-17T03:02:38.095Z,0
2018-12-17T03:03:39.066Z,0
2018-12-17T03:04:40.067Z,0
2018-12-17T03:05:40.756Z,0
2018-12-17T03:06:40.899Z,0
2018-12-17T03:07:42.110Z,0
2018-12-17T03:08:42.801Z,0
2018-12-17T03:09:43.491Z,0
2018-12-17T03:10:44.592Z,0
2018-12-17T03:11:45.599Z,0
2018-12-17T03:12:46.319Z,0
2018-12-17T03:13:46.839Z,0
2018-12-17T03:14:48.087Z,0
2018-12-17T03:15:48.336Z,0
2018-12-17T03:16:48.601Z,0
2018-12-17T03:17:48.305Z,0
2018-12-17T03:18:49.279Z,0
2018-12-17T03:19:50.977Z,0
2018-12-17T03:20:51.821Z,0
2018-12-17T03:21:52.574Z,0
2018-12-17T03:22:52.987Z,0
2018-12-17T03:23:54.231Z,0
2018-12-17T03:24:54.379Z,0
2018-12-17T03:25:55.117Z,0
2018-12-17T03:26:56.102Z,0
2018-12-17T03:27:56.347Z,0
2018-12-17T03:28:56.767Z,0
2018-12-17T03:29:58.293Z,0
2018-12-17T03:30:59.273Z,0
2018-12-17T03:31:59.807Z,0
2018-12-17T03:33:00.965Z,0
2018-12-17T03:34:01.221Z,0
2018-12-17T03:35:01.195Z,0
2018-12-17T03:36:02.454Z,0
2018-12-17T03:37:02.868Z,0
2018-12-17T03:38:03.124Z,0
2018-12-17T03:39:03.818Z,0
2018-12-17T03:40:05.069Z,0
2018-12-17T03:41:05.476Z,0
2018-12-17T03:42:06.444Z,0
2018-12-17T03:43:07.135Z,0
2018-12-17T03:44:07.547Z,0
2018-12-17T03:45:08.821Z,0
2018-12-17T03:46:09.508Z,0
2018-12-17T03:47:09.933Z,0
2018-12-17T03:48:11.181Z,0
2018-12-17T03:49:10.601Z,0
2018-12-17T03:50:11.569Z,0
2018-12-17T03:51:11.396Z,0
2018-12-17T03:52:12.656Z,0
2018-12-17T03:53:12.799Z,0
2018-12-17T03:54:14.487Z,0
2018-12-17T03:55:15.290Z,0
2018-12-17T03:56:16.600Z,0
2018-12-17T03:57:17.291Z,0
2018-12-17T03:58:18.261Z,0
2018-12-17T03:59:18.672Z,0
2018-12-17T04:00:20.087Z,0
2018-12-17T04:01:21.741Z,0
2018-12-17T04:02:21.988Z,0
2018-12-17T04:03:23.654Z,0
2018-12-17T04:04:22.062Z,0
2018-12-17T04:05:23.311Z,0
2018-12-17T04:06:24.301Z,0
2018-12-17T04:07:24.995Z,0
2018-12-17T04:08:25.959Z,0
2018-12-17T04:09:27.237Z,0
2018-12-17T04:10:26.975Z,0
2018-12-17T04:11:27.943Z,0
2018-12-17T04:12:28.356Z,0
2018-12-17T04:13:29.767Z,0
2018-12-17T04:14:30.464Z,0
2018-12-17T04:15:32.434Z,0
2018-12-17T04:16:33.410Z,0
2018-12-17T04:17:34.108Z,0
2018-12-17T04:18:35.077Z,0
2018-12-17T04:19:35.240Z,0
2018-12-17T04:20:36.209Z,0
2018-12-17T04:21:36.749Z,0
2018-12-17T04:22:37.440Z,0
2018-12-17T04:23:37.857Z,0
2018-12-17T04:24:39.005Z,0
2018-12-17T04:25:39.975Z,0
2018-12-17T04:26:41.280Z,0
2018-12-17T04:27:41.697Z,0
2018-12-17T04:28:42.448Z,0
2018-12-17T04:29:43.414Z,0
2018-12-17T04:30:44.105Z,0
2018-12-17T04:31:45.257Z,0
2018-12-17T04:32:46.670Z,0
2018-12-17T04:33:47.644Z,0
2018-12-17T04:34:48.178Z,0
2018-12-17T04:35:48.424Z,0
2018-12-17T04:36:48.116Z,0
2018-12-17T04:37:49.573Z,0
2018-12-17T04:38:52.062Z,0
2018-12-17T04:39:53.198Z,0
2018-12-17T04:40:54.340Z,0
2018-12-17T04:41:55.468Z,0
2018-12-17T04:42:56.988Z,0
2018-12-17T04:43:57.513Z,0
2018-12-17T04:44:57.504Z,0
2018-12-17T04:45:58.265Z,0
2018-12-17T04:46:58.399Z,0
2018-12-17T04:48:00.371Z,0
2018-12-17T04:49:01.066Z,0
2018-12-17T04:50:02.504Z,0
2018-12-17T04:51:03.484Z,0
2018-12-17T04:52:04.991Z,0
2018-12-17T04:53:05.680Z,0
2018-12-17T04:54:06.372Z,0
2018-12-17T04:55:06.787Z,0
2018-12-17T04:56:08.063Z,0
2018-12-17T04:57:09.312Z,0
2018-12-17T04:58:09.472Z,0
2018-12-17T04:59:16.436Z,0
2018-12-17T04:59:23.191Z,0
2018-12-17T05:00:23.575Z,0
2018-12-17T05:01:23.998Z,0
2018-12-17T05:02:26.253Z,0
2018-12-17T05:03:26.313Z,0
2018-12-17T05:04:26.776Z,0
2018-12-17T05:05:27.525Z,0
2018-12-17T05:06:28.225Z,0
2018-12-17T05:07:28.914Z,0
2018-12-17T05:08:29.956Z,0
2018-12-17T05:09:29.649Z,0
2018-12-17T05:10:30.762Z,0
2018-12-17T05:11:31.001Z,0
2018-12-17T05:12:31.980Z,0
2018-12-17T05:13:33.227Z,0
2018-12-17T05:14:32.913Z,0
2018-12-17T05:15:34.169Z,0
2018-12-17T05:16:34.647Z,0
2018-12-17T05:17:35.342Z,0
2018-12-17T05:18:36.588Z,0
2018-12-17T05:19:37.125Z,0
2018-12-17T05:20:37.675Z,0
2018-12-17T05:21:37.816Z,4
2018-12-17T05:22:39.091Z,0
2018-12-17T05:23:40.411Z,0
2018-12-17T05:24:40.927Z,0
2018-12-17T05:25:41.649Z,0
2018-12-17T05:26:41.781Z,0
2018-12-17T05:27:43.026Z,0
2018-12-17T05:28:42.996Z,0
2018-12-17T05:29:43.687Z,0
2018-12-17T05:30:44.579Z,0
2018-12-17T05:31:45.842Z,0
2018-12-17T05:32:46.254Z,0
2018-12-17T05:33:47.229Z,0
2018-12-17T05:34:48.272Z,0
2018-12-17T05:35:48.966Z,0
2018-12-17T05:36:49.210Z,0
2018-12-17T05:37:49.903Z,0
2018-12-17T05:38:50.324Z,0
2018-12-17T05:39:51.295Z,0
2018-12-17T05:40:52.979Z,0
2018-12-17T05:41:53.672Z,0
2018-12-17T05:42:54.367Z,0
2018-12-17T05:43:55.354Z,0
2018-12-17T05:44:55.778Z,0
2018-12-17T05:45:56.748Z,0
2018-12-17T05:46:56.997Z,0
2018-12-17T05:47:56.966Z,0
2018-12-17T05:48:58.215Z,0
2018-12-17T05:49:58.909Z,0
2018-12-17T05:50:59.724Z,0
2018-12-17T05:52:00.692Z,0
2018-12-17T05:53:02.240Z,0
2018-12-17T05:54:01.666Z,0
2018-12-17T05:55:03.920Z,0
2018-12-17T05:56:03.607Z,0
2018-12-17T05:57:04.021Z,0
2018-12-17T05:58:04.773Z,0
2018-12-17T05:59:05.463Z,0
2018-12-17T06:00:06.719Z,0
2018-12-17T06:01:07.263Z,0
2018-12-17T06:02:08.399Z,0
2018-12-17T06:03:09.534Z,0
2018-12-17T06:04:10.946Z,0
2018-12-17T06:05:11.638Z,0
2018-12-17T06:06:12.053Z,0
2018-12-17T06:07:13.467Z,0
2018-12-17T06:08:14.183Z,0
2018-12-17T06:09:15.317Z,0
2018-12-17T06:10:16.733Z,0
2018-12-17T06:11:17.854Z,0
2018-12-17T06:12:18.280Z,0
2018-12-17T06:13:19.053Z,0
2018-12-17T06:14:20.018Z,0
2018-12-17T06:15:20.704Z,0
2018-12-17T06:16:21.117Z,0
2018-12-17T06:17:22.085Z,0
2018-12-17T06:18:23.330Z,0
2018-12-17T06:19:24.305Z,0
2018-12-17T06:20:25.003Z,0
2018-12-17T06:21:26.522Z,0
2018-12-17T06:22:27.212Z,0
2018-12-17T06:23:27.685Z,0
2018-12-17T06:24:27.820Z,0
2018-12-17T06:25:29.260Z,4
2018-12-17T06:26:29.676Z,4
2018-12-17T06:27:41.987Z,4
2018-12-17T06:28:43.671Z,4
2018-12-17T06:29:44.919Z,0
2018-12-17T06:30:44.886Z,4
2018-12-17T06:31:45.026Z,4
2018-12-17T06:32:45.433Z,4
2018-12-17T06:33:46.678Z,4
2018-12-17T06:34:47.363Z,8
2018-12-17T06:35:48.058Z,4
2018-12-17T06:36:49.027Z,8
2018-12-17T06:37:49.164Z,8
2018-12-17T06:38:49.711Z,8
2018-12-17T06:39:50.195Z,12
2018-12-17T06:40:51.166Z,12
2018-12-17T06:41:51.303Z,16
2018-12-17T06:42:51.993Z,16
2018-12-17T06:43:52.133Z,20
2018-12-17T06:44:52.825Z,24
2018-12-17T06:45:53.240Z,24
2018-12-17T06:46:53.652Z,24
2018-12-17T06:47:55.069Z,32
2018-12-17T06:48:56.168Z,36
2018-12-17T06:49:56.303Z,36
2018-12-17T06:50:57.439Z,40
2018-12-17T06:51:58.580Z,44
2018-12-17T06:52:59.824Z,52
2018-12-17T06:53:59.793Z,60
2018-12-17T06:55:00.487Z,64
2018-12-17T06:56:00.621Z,72
2018-12-17T06:57:01.816Z,72
2018-12-17T06:58:02.781Z,80
2018-12-17T06:59:03.324Z,88
2018-12-17T07:00:04.462Z,96
2018-12-17T07:01:05.159Z,104
2018-12-17T07:02:05.847Z,116
2018-12-17T07:03:06.265Z,124
2018-12-17T07:04:06.958Z,136
2018-12-17T07:05:07.651Z,144
2018-12-17T07:06:08.626Z,160
2018-12-17T07:07:09.046Z,172
2018-12-17T07:08:10.024Z,184
2018-12-17T07:09:12.573Z,200
2018-12-17T07:10:13.026Z,216
2018-12-17T07:11:15.155Z,232
2018-12-17T07:12:14.603Z,252
2018-12-17T07:13:15.291Z,272
2018-12-17T07:14:15.691Z,292
2018-12-17T07:15:16.303Z,316
2018-12-17T07:16:16.862Z,336
2018-12-17T07:17:17.235Z,360
2018-12-17T07:18:23.616Z,384
2018-12-17T07:18:34.519Z,388
2018-12-17T07:18:46.901Z,396
2018-12-17T07:18:55.491Z,400
2018-12-17T07:19:55.863Z,420
2018-12-17T07:20:57.110Z,444
2018-12-17T07:21:58.643Z,468
2018-12-17T07:22:58.056Z,492
2018-12-17T07:24:00.345Z,512
2018-12-17T07:25:03.052Z,532
2018-12-17T07:26:02.522Z,548
2018-12-17T07:27:04.112Z,568
2018-12-17T07:28:04.803Z,588
2018-12-17T07:29:04.909Z,596
2018-12-17T07:30:06.665Z,596
2018-12-17T07:31:07.141Z,588
2018-12-17T07:32:07.580Z,576
2018-12-17T07:33:09.380Z,568
2018-12-17T07:34:09.511Z,560
2018-12-17T07:35:09.906Z,544
2018-12-17T07:36:10.788Z,512
2018-12-17T07:37:11.198Z,476
2018-12-17T07:38:12.800Z,460
2018-12-17T07:39:13.399Z,436
2018-12-17T07:40:13.828Z,424
2018-12-17T07:41:14.936Z,416
2018-12-17T07:42:16.310Z,412
2018-12-17T07:43:17.713Z,412
2018-12-17T07:44:18.013Z,416
2018-12-17T07:45:18.189Z,420
2018-12-17T07:46:18.130Z,432
2018-12-17T07:47:19.116Z,432
2018-12-17T07:48:20.492Z,444
2018-12-17T07:49:19.918Z,452
2018-12-17T07:50:21.616Z,464
2018-12-17T07:51:21.524Z,476
2018-12-17T07:52:21.975Z,492
2018-12-17T07:53:22.670Z,528
2018-12-17T07:54:22.815Z,568
2018-12-17T07:55:24.825Z,640
2018-12-17T07:56:25.238Z,720
2018-12-17T07:57:26.737Z,832
2018-12-17T07:58:27.727Z,980
2018-12-17T07:59:29.087Z,1140
2018-12-17T08:00:29.290Z,1308
2018-12-17T08:01:29.254Z,1488
2018-12-17T08:02:29.839Z,1648
2018-12-17T08:03:30.611Z,1788
2018-12-17T08:04:31.308Z,1928
2018-12-17T08:05:32.077Z,2060
2018-12-17T08:06:32.220Z,2164
2018-12-17T08:07:32.639Z,2244
2018-12-17T08:08:37.487Z,2328
2018-12-17T08:09:37.627Z,2384
2018-12-17T08:10:38.754Z,2444
2018-12-17T08:11:39.973Z,2440
2018-12-17T08:12:40.113Z,2496
2018-12-17T08:13:40.534Z,2540
2018-12-17T08:14:41.771Z,2552
2018-12-17T08:15:42.468Z,2536
2018-12-17T08:16:42.889Z,2612
2018-12-17T08:17:43.860Z,2640
2018-12-17T08:18:44.563Z,2476
2018-12-17T08:19:44.984Z,2496
2018-12-17T08:20:45.647Z,2464
2018-12-17T08:21:46.614Z,2616
2018-12-17T08:22:47.591Z,2708
2018-12-17T08:23:48.015Z,2756
2018-12-17T08:24:48.511Z,2780
2018-12-17T08:25:50.090Z,2768
2018-12-17T08:26:51.067Z,2696
2018-12-17T08:27:51.765Z,2600
2018-12-17T08:28:52.459Z,2580
2018-12-17T08:29:52.615Z,2608
2018-12-17T08:30:59.548Z,2716
2018-12-17T08:31:06.278Z,2732
2018-12-17T08:32:05.894Z,2852
2018-12-17T08:33:07.037Z,2936
2018-12-17T08:34:08.800Z,3044
2018-12-17T08:35:09.244Z,3176
2018-12-17T08:36:09.668Z,3348
2018-12-17T08:37:10.643Z,3440
2018-12-17T08:38:10.783Z,3636
2018-12-17T08:39:12.201Z,4288
2018-12-17T08:40:12.897Z,3896
2018-12-17T08:41:13.371Z,3984
2018-12-17T08:42:13.771Z,4048
2018-12-17T08:43:14.748Z,3944
2018-12-17T08:44:15.442Z,4008
2018-12-17T08:45:15.861Z,4076
2018-12-17T08:46:17.118Z,4052
2018-12-17T08:47:17.534Z,3980
2018-12-17T08:48:18.224Z,4072
2018-12-17T08:49:18.920Z,4160
2018-12-17T08:50:19.063Z,4188
2018-12-17T08:51:19.764Z,4360
2018-12-17T08:52:21.231Z,4448
2018-12-17T08:53:21.939Z,4552
2018-12-17T08:54:22.645Z,4664
2018-12-17T08:55:24.340Z,4600
2018-12-17T08:56:24.755Z,5356
2018-12-17T08:57:26.464Z,4768
2018-12-17T08:58:26.891Z,4880
2018-12-17T08:59:28.659Z,5388
2018-12-17T09:00:28.807Z,5076
2018-12-17T09:01:30.061Z,5084
2018-12-17T09:02:31.165Z,5320
2018-12-17T09:03:31.153Z,5236
2018-12-17T09:04:31.297Z,5408
2018-12-17T09:05:32.438Z,5936
2018-12-17T09:06:32.866Z,6356
2018-12-17T09:07:33.286Z,6764
2018-12-17T09:08:35.033Z,7404
2018-12-17T09:09:36.011Z,8504
2018-12-17T09:10:35.709Z,9336
2018-12-17T09:11:35.857Z,10032
2018-12-17T09:12:37.255Z,9416
2018-12-17T09:13:37.503Z,9496
2018-12-17T09:14:38.202Z,11412
2018-12-17T09:15:38.623Z,10644
2018-12-17T09:16:39.321Z,8788
2018-12-17T09:17:41.019Z,7324
2018-12-17T09:18:41.459Z,7204
2018-12-17T09:19:42.505Z,8676
2018-12-17T09:20:43.202Z,10620
2018-12-17T09:21:43.634Z,11000
2018-12-17T09:22:44.610Z,10616
2018-12-17T09:23:45.302Z,10112
2018-12-17T09:24:47.904Z,9428
2018-12-17T09:25:48.051Z,8256
2018-12-17T09:26:49.191Z,7780
2018-12-17T09:27:50.176Z,8424
2018-12-17T09:28:51.152Z,9356
2018-12-17T09:29:51.575Z,13400
2018-12-17T09:30:52.840Z,18624
2018-12-17T09:31:53.585Z,23552
2018-12-17T09:32:53.417Z,26432
2018-12-17T09:33:53.841Z,28672
2018-12-17T09:34:54.260Z,33728
2018-12-17T09:35:55.519Z,35168
2018-12-17T09:36:55.665Z,33792
2018-12-17T09:37:56.086Z,33696
2018-12-17T09:38:57.788Z,28448
2018-12-17T09:39:58.138Z,20128
2018-12-17T09:40:58.834Z,23616
2018-12-17T09:41:59.006Z,13168
2018-12-17T09:43:00.388Z,14236
2018-12-17T09:44:00.535Z,8736
2018-12-17T09:45:01.683Z,7404
2018-12-17T09:46:02.937Z,7788
2018-12-17T09:47:03.644Z,7680
2018-12-17T09:48:04.565Z,7996
2018-12-17T09:49:04.432Z,12016
2018-12-17T09:50:05.430Z,9340
2018-12-17T09:51:05.855Z,8084
2018-12-17T09:52:07.556Z,8624
2018-12-17T09:53:07.195Z,10828
2018-12-17T09:54:08.680Z,15728
2018-12-17T09:55:09.383Z,21024
2018-12-17T09:56:10.917Z,28224
2018-12-17T09:57:11.339Z,19808
2018-12-17T09:58:12.317Z,14340
2018-12-17T09:59:12.740Z,17120
2018-12-17T10:00:13.164Z,27040
2018-12-17T10:01:19.371Z,26240
2018-12-17T10:01:27.573Z,25600
2018-12-17T10:02:27.062Z,21568
2018-12-17T10:03:28.320Z,18976
2018-12-17T10:04:27.744Z,24864
2018-12-17T10:05:32.991Z,36032
2018-12-17T10:06:30.349Z,43360
2018-12-17T10:07:32.218Z,47776
2018-12-17T10:08:32.360Z,47680
2018-12-17T10:09:33.064Z,50592
2018-12-17T10:10:33.770Z,51936
2018-12-17T10:11:34.471Z,43168
2018-12-17T10:12:35.694Z,52288
2018-12-17T10:13:36.547Z,58464
2018-12-17T10:14:36.806Z,59744
2018-12-17T10:15:36.960Z,64064
2018-12-17T10:16:37.382Z,43200
2018-12-17T10:17:38.085Z,60704
2018-12-17T10:18:38.838Z,22912
2018-12-17T10:19:39.544Z,57120
2018-12-17T10:20:39.975Z,57184
2018-12-17T10:21:40.959Z,58848
2018-12-17T10:22:41.801Z,53536
2018-12-17T10:23:42.509Z,36192
2018-12-17T10:24:43.630Z,41280
2018-12-17T10:25:44.058Z,36640
2018-12-17T10:26:44.760Z,45504
2018-12-17T10:27:45.749Z,39968
2018-12-17T10:28:46.172Z,56992
2018-12-17T10:29:47.711Z,12504
2018-12-17T10:30:47.144Z,11372
2018-12-17T10:31:47.909Z,32640
2018-12-17T10:32:48.749Z,11404
2018-12-17T10:33:50.843Z,34400
2018-12-17T10:34:50.551Z,14064
2018-12-17T10:35:51.255Z,8400
2018-12-17T10:36:52.679Z,7552
2018-12-17T10:37:53.102Z,7740
2018-12-17T10:38:53.166Z,7604
2018-12-17T10:39:54.587Z,6984
2018-12-17T10:40:55.567Z,6572
2018-12-17T10:41:56.269Z,6320
2018-12-17T10:42:56.668Z,6160
2018-12-17T10:43:57.665Z,5812
2018-12-17T10:44:58.090Z,5652
2018-12-17T10:45:59.073Z,6332
2018-12-17T10:46:59.494Z,6996
2018-12-17T10:48:00.195Z,6396
2018-12-17T10:49:00.517Z,7632
2018-12-17T10:50:01.516Z,7260
2018-12-17T10:51:02.219Z,8096
2018-12-17T10:52:03.471Z,10248
2018-12-17T10:53:03.671Z,12060
2018-12-17T10:54:04.373Z,7572
2018-12-17T10:55:05.711Z,6544
2018-12-17T10:56:05.590Z,6488
2018-12-17T10:57:06.132Z,6216
2018-12-17T10:58:09.928Z,6008
2018-12-17T10:59:08.306Z,6228
2018-12-17T11:00:09.004Z,6888
2018-12-17T11:01:09.678Z,8032
2018-12-17T11:02:10.219Z,6540
2018-12-17T11:03:11.606Z,6708
2018-12-17T11:04:12.863Z,7516
2018-12-17T11:05:13.568Z,6392
2018-12-17T11:06:14.541Z,6556
2018-12-17T11:07:15.538Z,8660
2018-12-17T11:08:15.685Z,8620
2018-12-17T11:09:16.663Z,26368
2018-12-17T11:10:17.365Z,9012
2018-12-17T11:11:19.345Z,10044
2018-12-17T11:12:19.605Z,11516
2018-12-17T11:13:19.723Z,8220
2018-12-17T11:14:20.195Z,8140
2018-12-17T11:15:20.913Z,13116
2018-12-17T11:16:21.617Z,18048
2018-12-17T11:17:22.593Z,10204
2018-12-17T11:18:23.014Z,7792
2018-12-17T11:19:24.473Z,9628
2018-12-17T11:20:25.254Z,7228
2018-12-17T11:21:26.648Z,9640
2018-12-17T11:22:28.346Z,6632
2018-12-17T11:23:29.144Z,6352
2018-12-17T11:24:28.969Z,6220
2018-12-17T11:25:29.666Z,6580
2018-12-17T11:26:31.089Z,6292
2018-12-17T11:27:31.790Z,6960
2018-12-17T11:28:32.213Z,6440
2018-12-17T11:29:32.969Z,6604
2018-12-17T11:30:33.387Z,5980
2018-12-17T11:31:34.568Z,5676
2018-12-17T11:32:34.961Z,5508
2018-12-17T11:33:37.962Z,5516
2018-12-17T11:34:37.367Z,5532
2018-12-17T11:35:38.343Z,5748
2018-12-17T11:36:38.799Z,5840
2018-12-17T11:37:39.225Z,5872
2018-12-17T11:38:40.673Z,5936
2018-12-17T11:39:41.652Z,6616
2018-12-17T11:40:42.106Z,5696
2018-12-17T11:41:42.826Z,4928
2018-12-17T11:42:43.934Z,4284
2018-12-17T11:43:46.811Z,4072
2018-12-17T11:44:52.653Z,4104
2018-12-17T11:45:00.234Z,4140
2018-12-17T11:45:59.692Z,4780
2018-12-17T11:46:59.843Z,4804
2018-12-17T11:48:00.271Z,4264
2018-12-17T11:49:01.528Z,5716
2018-12-17T11:50:01.147Z,5024
2018-12-17T11:51:02.328Z,4944
2018-12-17T11:52:03.596Z,5084
2018-12-17T11:53:04.860Z,4856
2018-12-17T11:54:05.902Z,4508
2018-12-17T11:55:05.702Z,4164
2018-12-17T11:56:06.601Z,3732
2018-12-17T11:57:07.021Z,3376
2018-12-17T11:58:08.165Z,3168
2018-12-17T11:59:09.303Z,3392
2018-12-17T12:00:10.680Z,4496
2018-12-17T12:01:12.470Z,3540
2018-12-17T12:02:12.379Z,3172
2018-12-17T12:03:12.798Z,2952
2018-12-17T12:04:15.567Z,2784
2018-12-17T12:05:16.271Z,2592
2018-12-17T12:06:17.416Z,2412
2018-12-17T12:07:18.802Z,2192
2018-12-17T12:08:18.374Z,2024
2018-12-17T12:09:19.915Z,1868
2018-12-17T12:10:21.350Z,1760
2018-12-17T12:11:21.771Z,1684
2018-12-17T12:12:22.471Z,1672
2018-12-17T12:13:23.207Z,1652
2018-12-17T12:14:24.175Z,1744
2018-12-17T12:15:24.676Z,1948
2018-12-17T12:16:26.591Z,2128
2018-12-17T12:17:26.576Z,2288
2018-12-17T12:18:26.551Z,2336
2018-12-17T12:19:26.970Z,2272
2018-12-17T12:20:27.358Z,2208
2018-12-17T12:21:29.094Z,2252
2018-12-17T12:22:29.460Z,2384
2018-12-17T12:23:30.376Z,2580
2018-12-17T12:24:30.620Z,2672
2018-12-17T12:25:31.237Z,2624
2018-12-17T12:26:31.791Z,2616
2018-12-17T12:27:33.490Z,2636
2018-12-17T12:28:33.958Z,2572
2018-12-17T12:29:35.382Z,2540
2018-12-17T12:30:35.367Z,2584
2018-12-17T12:31:36.830Z,2628
2018-12-17T12:32:36.976Z,2704
2018-12-17T12:33:37.957Z,2636
2018-12-17T12:34:38.948Z,2484
2018-12-17T12:35:39.309Z,2308
2018-12-17T12:36:40.484Z,2196
2018-12-17T12:37:41.183Z,2112
2018-12-17T12:38:42.201Z,2008
2018-12-17T12:39:42.623Z,1908
2018-12-17T12:40:43.602Z,1860
2018-12-17T12:41:44.031Z,1932
2018-12-17T12:42:57.476Z,2092
2018-12-17T12:43:57.935Z,2408
2018-12-17T12:44:58.079Z,8656
2018-12-17T12:45:58.843Z,3224
2018-12-17T12:46:59.262Z,6852
2018-12-17T12:47:59.963Z,10884
2018-12-17T12:49:00.201Z,11176
2018-12-17T12:50:01.184Z,9844
2018-12-17T12:51:01.610Z,10128
2018-12-17T12:52:02.656Z,10300
2018-12-17T12:53:03.397Z,11208
2018-12-17T12:54:04.373Z,12304
2018-12-17T12:55:03.854Z,13560
2018-12-17T12:56:05.762Z,10512
2018-12-17T12:57:05.251Z,10156
2018-12-17T12:58:05.781Z,12412
2018-12-17T12:59:07.772Z,20000
2018-12-17T13:00:07.756Z,18912
2018-12-17T13:01:09.739Z,18176
2018-12-17T13:02:10.721Z,18016
2018-12-17T13:03:11.710Z,16064
2018-12-17T13:04:12.856Z,14816
2018-12-17T13:05:13.335Z,11124
2018-12-17T13:06:13.769Z,8688
2018-12-17T13:07:14.221Z,5220
2018-12-17T13:08:15.001Z,8248
2018-12-17T13:09:16.174Z,9476
2018-12-17T13:10:16.595Z,7760
2018-12-17T13:11:17.447Z,7896
2018-12-17T13:12:17.915Z,8896
2018-12-17T13:13:18.894Z,10304
2018-12-17T13:14:19.439Z,11268
2018-12-17T13:15:21.144Z,12600
2018-12-17T13:16:21.642Z,11740
2018-12-17T13:17:22.697Z,10936
2018-12-17T13:18:24.065Z,9684
2018-12-17T13:19:25.835Z,9452
2018-12-17T13:20:26.580Z,9712
2018-12-17T13:21:26.770Z,9404
2018-12-17T13:22:27.195Z,9608
2018-12-17T13:23:28.938Z,9008
2018-12-17T13:24:29.477Z,9868
2018-12-17T13:25:30.179Z,11472
2018-12-17T13:26:30.883Z,11868
2018-12-17T13:27:31.586Z,10296
2018-12-17T13:28:32.015Z,9352
2018-12-17T13:29:33.171Z,9188
2018-12-17T13:30:33.635Z,9112
2018-12-17T13:31:34.341Z,9232
2018-12-17T13:32:35.322Z,8828
2018-12-17T13:33:36.445Z,9204
2018-12-17T13:34:36.414Z,9260
2018-12-17T13:35:37.394Z,9580
2018-12-17T13:36:38.377Z,8336
2018-12-17T13:37:39.081Z,7328
2018-12-17T13:38:40.078Z,7020
2018-12-17T13:39:40.740Z,6512
2018-12-17T13:40:40.888Z,5912
2018-12-17T13:41:41.407Z,5588
2018-12-17T13:42:41.834Z,4916
2018-12-17T13:43:43.819Z,4752
2018-12-17T13:44:43.954Z,5164
2018-12-17T13:45:45.377Z,5520
2018-12-17T13:46:46.082Z,5348
2018-12-17T13:47:46.523Z,5520
2018-12-17T13:48:48.187Z,5296
2018-12-17T13:49:49.714Z,5380
2018-12-17T13:50:49.193Z,5752
2018-12-17T13:51:49.360Z,6004
2018-12-17T13:52:50.616Z,5820
2018-12-17T13:53:51.321Z,5580
2018-12-17T13:54:51.607Z,5828
2018-12-17T13:55:53.952Z,6028
2018-12-17T13:56:54.100Z,5576
2018-12-17T13:57:55.081Z,5680
2018-12-17T13:58:55.226Z,6608
2018-12-17T13:59:56.374Z,3848
2018-12-17T14:00:57.418Z,5824
2018-12-17T14:01:57.566Z,4692
2018-12-17T14:02:58.993Z,5120